Time;durP1;ratioP1;P1;durP2;ratioP2;P2;SDS_P1;SDS_P2;PMS_P1;PMS_P2;Temp;Humidity;BMP_temperature;BMP_pressure;BME280_temperature;BME280_humidity;BME280_pressure;Samples;Min_cycle;Max_cycle;Signal;HPM_P1;HPM_P2
2021/03/11 00:00:11;;;;;;;19.80;10.43;;;;;;;6.92;66.62;98420.16;5058994;28;47206;-78
2021/03/11 00:02:36;;;;;;;18.35;9.43;;;;;;;6.78;67.55;98414.22;5059664;28;45240;-78
2021/03/11 00:05:05;;;;;;;14.18;9.50;;;;;;;6.88;66.63;98409.00;5074482;28;45256;-78
2021/03/11 00:07:30;;;;;;;14.95;9.43;;;;;;;6.88;66.05;98416.94;5079001;28;45228;-78
2021/03/11 00:09:56;;;;;;;15.77;9.60;;;;;;;6.84;67.65;98408.41;5078583;28;45533;-78
2021/03/11 00:12:21;;;;;;;17.75;10.00;;;;;;;6.76;65.39;98417.97;5078055;28;45318;-78
2021/03/11 00:14:46;;;;;;;14.38;9.68;;;;;;;6.78;67.22;98419.50;5078687;28;45461;-78
2021/03/11 00:17:12;;;;;;;17.48;10.65;;;;;;;6.76;67.78;98412.69;5079076;28;45529;-78
2021/03/11 00:19:37;;;;;;;15.05;9.65;;;;;;;6.83;66.92;98395.34;5078742;28;45319;-78
2021/03/11 00:22:04;;;;;;;14.50;9.55;;;;;;;6.85;67.00;98391.59;5060693;28;45616;-78
2021/03/11 00:24:30;;;;;;;15.27;9.43;;;;;;;7.00;65.69;98386.81;5078337;28;45330;-78
2021/03/11 00:26:55;;;;;;;18.67;10.75;;;;;;;6.82;66.64;98398.94;5078894;28;45425;-78
2021/03/11 00:29:21;;;;;;;15.90;9.55;;;;;;;6.76;66.05;98404.75;5078703;28;46277;-78
2021/03/11 00:31:46;;;;;;;16.98;9.93;;;;;;;6.77;66.78;98401.16;5079093;28;45388;-78
2021/03/11 00:34:12;;;;;;;17.95;10.23;;;;;;;6.85;64.84;98404.81;5078454;28;45274;-78
2021/03/11 00:36:37;;;;;;;19.08;9.93;;;;;;;6.89;65.66;98409.84;5060521;28;45311;-78
2021/03/11 00:39:05;;;;;;;15.15;9.32;;;;;;;6.88;63.82;98398.44;5077957;28;45372;-78
2021/03/11 00:41:30;;;;;;;15.35;9.73;;;;;;;6.82;64.71;98404.25;5078541;28;45359;-78
2021/03/11 00:43:56;;;;;;;15.88;10.18;;;;;;;6.81;64.58;98403.38;5078185;28;45489;-78
2021/03/11 00:46:21;;;;;;;18.65;10.52;;;;;;;6.79;65.04;98404.50;5078652;28;45362;-78
2021/03/11 00:48:47;;;;;;;16.63;10.65;;;;;;;6.87;65.25;98407.34;5078137;28;45984;-78
2021/03/11 00:51:13;;;;;;;13.85;9.18;;;;;;;6.89;66.01;98401.91;5078532;28;45323;-78
2021/03/11 00:53:38;;;;;;;15.75;9.60;;;;;;;6.89;65.63;98405.41;5077714;28;45470;-78
2021/03/11 00:56:04;;;;;;;14.98;9.45;;;;;;;6.95;66.22;98418.09;5078265;28;45462;-78
2021/03/11 00:58:29;;;;;;;13.43;9.45;;;;;;;7.04;67.16;98407.72;5078033;28;45232;-78
2021/03/11 01:00:55;;;;;;;22.15;13.43;;;;;;;7.04;66.10;98410.34;5069884;28;45358;-78
2021/03/11 01:03:20;;;;;;;28.42;17.00;;;;;;;6.88;67.74;98416.09;5072574;28;45226;-78
2021/03/11 01:05:46;;;;;;;29.13;16.95;;;;;;;6.75;68.99;98421.59;5060103;28;45953;-78
2021/03/11 01:08:11;;;;;;;25.90;17.45;;;;;;;6.77;67.63;98422.28;5077857;28;45470;-78
2021/03/11 01:10:36;;;;;;;21.15;14.75;;;;;;;6.52;66.35;98419.88;5059836;28;45644;-78
2021/03/11 01:13:03;;;;;;;21.90;13.52;;;;;;;6.57;64.15;98420.31;5058709;28;45309;-78
2021/03/11 01:15:35;;;;;;;21.40;13.23;;;;;;;6.54;67.09;98419.72;5059887;28;45712;-78
2021/03/11 01:18:01;;;;;;;20.58;12.48;;;;;;;6.49;66.25;98421.91;5059576;28;47962;-78
2021/03/11 01:20:26;;;;;;;21.33;12.70;;;;;;;6.54;66.04;98417.06;5078109;28;45422;-78
2021/03/11 01:22:52;;;;;;;19.45;13.00;;;;;;;6.71;67.41;98419.19;5077432;28;45545;-79
2021/03/11 01:25:17;;;;;;;22.02;12.85;;;;;;;6.84;67.06;98415.53;5077759;28;45275;-78
2021/03/11 01:27:43;;;;;;;20.02;13.05;;;;;;;6.76;68.34;98415.31;5077690;28;46599;-78
2021/03/11 01:30:09;;;;;;;19.80;12.38;;;;;;;6.76;69.59;98412.69;5078014;28;45449;-78
2021/03/11 01:32:34;;;;;;;18.83;10.77;;;;;;;6.65;69.18;98416.19;5077712;28;45279;-78
2021/03/11 01:35:00;;;;;;;14.18;9.65;;;;;;;6.80;67.89;98414.09;5059661;28;45335;-78
2021/03/11 01:37:25;;;;;;;16.98;9.95;;;;;;;6.88;66.44;98410.81;5077659;28;46172;-79
2021/03/11 01:39:51;;;;;;;15.88;10.05;;;;;;;6.89;69.00;98400.13;5077406;28;45359;-78
2021/03/11 01:42:17;;;;;;;15.77;9.82;;;;;;;6.83;69.27;98405.91;5059382;28;45569;-78
2021/03/11 01:44:42;;;;;;;15.07;8.75;;;;;;;7.00;66.95;98397.41;5077443;28;45541;-79
2021/03/11 01:47:07;;;;;;;17.70;9.60;;;;;;;7.04;65.87;98387.38;5077545;28;45327;-79
2021/03/11 01:49:33;;;;;;;12.75;9.05;;;;;;;6.96;68.65;98385.41;5077676;28;45396;-78
2021/03/11 01:52:00;;;;;;;16.48;9.50;;;;;;;6.97;64.52;98375.66;5077561;28;45491;-78
2021/03/11 01:54:27;;;;;;;17.88;9.73;;;;;;;6.93;67.82;98367.16;5077074;28;45267;-78
2021/03/11 01:56:53;;;;;;;15.57;10.05;;;;;;;6.83;68.50;98368.91;5077329;28;45276;-78
2021/03/11 01:59:18;;;;;;;16.73;9.43;;;;;;;6.88;66.96;98366.72;5077742;28;45228;-78
2021/03/11 02:01:44;;;;;;;18.52;11.20;;;;;;;7.01;63.53;98356.75;5046344;28;45265;-79
2021/03/11 02:04:10;;;;;;;17.60;11.05;;;;;;;7.09;62.96;98350.84;5077063;28;45441;-79
2021/03/11 02:06:35;;;;;;;17.35;10.30;;;;;;;7.14;65.87;98353.06;5077202;28;45374;-78
2021/03/11 02:09:01;;;;;;;18.70;10.68;;;;;;;7.07;65.39;98357.22;5058774;28;45268;-78
2021/03/11 02:11:29;;;;;;;17.67;10.98;;;;;;;6.93;66.56;98353.09;5076437;28;45505;-78
2021/03/11 02:14:18;;;;;;;21.77;12.82;;;;;;;6.90;66.76;98353.34;5077591;28;45512;-78
2021/03/11 02:16:52;;;;;;;17.30;10.57;;;;;;;6.92;65.21;98348.75;5080647;28;45473;-78
2021/03/11 02:19:44;;;;;;;19.92;11.40;;;;;;;6.87;65.62;98346.53;5080888;28;45343;-78
2021/03/11 02:22:12;;;;;;;17.63;11.85;;;;;;;6.75;66.22;98343.09;5080530;28;45271;-78
2021/03/11 02:24:52;;;;;;;19.48;11.20;;;;;;;6.78;65.37;98344.66;5080383;28;45306;-79
2021/03/11 02:27:38;;;;;;;17.17;10.95;;;;;;;6.72;65.63;98346.00;5080769;28;45426;-78
2021/03/11 02:30:05;;;;;;;16.67;9.77;;;;;;;6.76;65.70;98342.13;5069799;28;45316;-78
2021/03/11 02:32:33;;;;;;;17.52;9.85;;;;;;;6.67;64.41;98342.91;5061938;28;45405;-78
2021/03/11 02:35:01;;;;;;;15.55;9.77;;;;;;;6.73;64.28;98342.41;5062342;28;45670;-78
2021/03/11 02:37:37;;;;;;;16.00;9.48;;;;;;;6.76;67.34;98350.06;5062206;28;47258;-78
2021/03/11 02:40:08;;;;;;;17.83;10.13;;;;;;;6.85;65.89;98348.47;5080247;28;45338;-78
2021/03/11 02:42:34;;;;;;;19.77;12.32;;;;;;;6.92;66.90;98339.03;5079803;28;45254;-78
2021/03/11 02:45:02;;;;;;;20.63;13.13;;;;;;;6.74;66.24;98325.56;5080516;28;45331;-78
2021/03/11 02:47:29;;;;;;;19.08;11.80;;;;;;;6.71;67.86;98339.91;5080136;28;45375;-78
2021/03/11 02:49:56;;;;;;;20.77;13.45;;;;;;;6.80;67.88;98343.56;5062313;28;45285;-78
2021/03/11 02:52:23;;;;;;;23.02;15.13;;;;;;;6.63;67.69;98346.78;5080058;28;45517;-78
2021/03/11 02:54:50;;;;;;;23.17;13.55;;;;;;;6.52;67.26;98352.94;5080131;28;45318;-78
2021/03/11 02:57:19;;;;;;;22.60;14.05;;;;;;;6.59;67.37;98355.94;5067115;28;46166;-78
2021/03/11 02:59:46;;;;;;;23.20;14.45;;;;;;;6.64;67.66;98356.38;5080181;28;45283;-78
2021/03/11 03:02:14;;;;;;;21.23;15.27;;;;;;;6.66;67.98;98372.94;5066089;28;45367;-78
2021/03/11 03:04:44;;;;;;;20.45;13.32;;;;;;;6.54;67.90;98377.44;5061901;28;45462;-78
2021/03/11 03:07:14;;;;;;;21.63;14.40;;;;;;;6.56;67.01;98372.88;5061892;28;47238;-78
2021/03/11 03:09:41;;;;;;;18.50;13.30;;;;;;;6.62;67.97;98374.19;5079666;28;45402;-78
2021/03/11 03:12:07;;;;;;;18.10;11.82;;;;;;;6.60;68.16;98369.00;5060355;28;45371;-78
2021/03/11 03:14:34;;;;;;;15.05;10.32;;;;;;;6.67;63.59;98367.56;5061817;28;45529;-79
2021/03/11 03:16:59;;;;;;;16.30;9.82;;;;;;;6.71;64.14;98353.13;5061524;28;47668;-78
2021/03/11 03:19:26;;;;;;;16.17;9.98;;;;;;;6.75;65.20;98355.50;5079949;28;45224;-78
2021/03/11 03:21:52;;;;;;;15.38;9.90;;;;;;;6.74;66.47;98365.22;5079317;28;45561;-78
2021/03/11 03:24:19;;;;;;;14.07;9.15;;;;;;;6.85;66.35;98357.22;5079388;28;45571;-78
2021/03/11 03:26:45;;;;;;;13.40;9.18;;;;;;;6.85;67.80;98361.69;5061222;28;46981;-78
2021/03/11 03:29:12;;;;;;;13.32;8.02;;;;;;;6.72;65.95;98352.16;5061291;28;45501;-78
2021/03/11 03:31:37;;;;;;;14.23;8.38;;;;;;;6.79;66.43;98351.63;5079676;28;45379;-78
2021/03/11 03:34:03;;;;;;;15.50;8.55;;;;;;;6.68;66.96;98344.59;5079535;28;45484;-78
2021/03/11 03:36:28;;;;;;;13.80;8.50;;;;;;;6.77;67.09;98350.91;5079722;28;46053;-78
2021/03/11 03:38:55;;;;;;;16.58;9.00;;;;;;;6.79;67.08;98351.63;5079153;28;45375;-78
2021/03/11 03:41:24;;;;;;;13.48;9.07;;;;;;;6.86;68.77;98339.56;5060562;28;45486;-78
2021/03/11 03:43:50;;;;;;;17.20;10.98;;;;;;;6.92;68.73;98335.53;5079344;28;45301;-78
2021/03/11 03:46:22;;;;;;;15.82;10.52;;;;;;;6.86;69.34;98329.00;5079550;28;46075;-78
2021/03/11 03:48:56;;;;;;;14.10;8.70;;;;;;;6.86;67.67;98321.06;5079305;28;45230;-78
2021/03/11 03:51:25;;;;;;;18.70;9.35;;;;;;;6.97;69.50;98333.34;5079228;28;45282;-78
2021/03/11 03:53:59;;;;;;;12.65;8.65;;;;;;;6.76;69.42;98331.56;5078974;28;45356;-78
2021/03/11 03:56:30;;;;;;;13.40;8.30;;;;;;;6.92;68.25;98340.84;5079522;28;45597;-78
2021/03/11 03:59:05;;;;;;;13.73;8.57;;;;;;;6.73;68.23;98334.47;5066676;28;45265;-78
2021/03/11 04:01:35;;;;;;;13.82;8.40;;;;;;;6.85;67.05;98336.06;5068456;28;45429;-78
2021/03/11 04:04:03;;;;;;;14.27;8.18;;;;;;;6.81;63.80;98329.38;5066441;28;45492;-78
2021/03/11 04:06:30;;;;;;;15.35;8.98;;;;;;;6.95;62.17;98327.34;5060798;28;46841;-78
2021/03/11 04:08:56;;;;;;;13.38;7.78;;;;;;;7.00;61.59;98322.50;5060605;28;46104;-78
2021/03/11 04:11:22;;;;;;;15.20;8.07;;;;;;;7.10;64.37;98312.84;5077832;28;45529;-78
2021/03/11 04:13:50;;;;;;;13.15;9.02;;;;;;;7.11;67.39;98305.72;5078334;28;45480;-78
2021/03/11 04:16:16;;;;;;;22.88;14.43;;;;;;;7.13;65.70;98307.28;5078917;28;45989;-78
2021/03/11 04:18:42;;;;;;;19.25;13.13;;;;;;;7.09;66.50;98315.59;5079075;28;45334;-78
2021/03/11 04:21:08;;;;;;;19.67;12.98;;;;;;;6.96;66.91;98316.66;5078813;28;45239;-78
2021/03/11 04:23:36;;;;;;;20.30;12.00;;;;;;;6.98;66.81;98319.16;5078616;28;45324;-78
2021/03/11 04:26:03;;;;;;;16.80;11.70;;;;;;;7.07;65.91;98331.63;5078654;28;45969;-78
2021/03/11 04:28:29;;;;;;;17.27;11.30;;;;;;;7.07;68.79;98336.91;5078921;28;45207;-78
2021/03/11 04:30:55;;;;;;;16.65;11.77;;;;;;;7.05;66.84;98338.81;5078416;28;45406;-78
2021/03/11 04:33:20;;;;;;;17.02;11.52;;;;;;;7.11;68.64;98327.75;5078865;28;45326;-78
2021/03/11 04:35:46;;;;;;;15.55;10.48;;;;;;;7.04;67.92;98333.66;5060314;28;47017;-78
2021/03/11 04:38:14;;;;;;;23.67;13.25;;;;;;;7.00;68.19;98327.78;5059477;28;45317;-78
2021/03/11 04:40:40;;;;;;;20.52;12.48;;;;;;;6.85;65.02;98327.31;5078622;28;45338;-78
2021/03/11 04:43:06;;;;;;;22.58;11.93;;;;;;;6.95;65.22;98325.56;5078169;28;45520;-78
2021/03/11 04:45:32;;;;;;;19.98;12.75;;;;;;;6.90;62.99;98326.91;5078272;28;45262;-78
2021/03/11 04:48:00;;;;;;;19.52;12.00;;;;;;;6.97;65.06;98336.00;5078608;28;45237;-78
2021/03/11 04:50:26;;;;;;;21.60;12.52;;;;;;;7.01;64.71;98332.97;5078478;28;45405;-78
2021/03/11 04:52:52;;;;;;;20.83;11.57;;;;;;;7.04;67.24;98334.50;5077890;28;45521;-78
2021/03/11 04:55:18;;;;;;;18.42;11.50;;;;;;;6.90;67.11;98330.41;5078029;28;45491;-78
2021/03/11 04:57:44;;;;;;;19.00;11.75;;;;;;;6.79;68.54;98330.47;5078406;28;45315;-79
2021/03/11 05:00:14;;;;;;;17.60;12.20;;;;;;;6.96;65.25;98334.31;5076193;28;45595;-78
2021/03/11 05:02:44;;;;;;;21.77;13.43;;;;;;;6.93;68.09;98331.94;5063650;28;45514;-78
2021/03/11 05:05:09;;;;;;;18.98;12.18;;;;;;;6.85;66.33;98327.31;5074779;28;45968;-78
2021/03/11 05:07:35;;;;;;;18.23;12.27;;;;;;;6.90;67.37;98335.69;5078402;28;45243;-78
2021/03/11 05:10:00;;;;;;;21.52;13.18;;;;;;;6.77;66.99;98346.47;5077930;28;45231;-78
2021/03/11 05:12:26;;;;;;;19.33;12.07;;;;;;;6.81;64.45;98342.59;5058888;28;46223;-78
2021/03/11 05:14:51;;;;;;;14.85;9.55;;;;;;;6.75;65.53;98337.00;5077763;28;45312;-78
2021/03/11 05:17:16;;;;;;;16.42;9.63;;;;;;;6.75;65.36;98331.72;5078198;28;45349;-78
2021/03/11 05:19:42;;;;;;;14.95;9.68;;;;;;;6.85;66.50;98330.78;5078088;28;45267;-78
2021/03/11 05:22:07;;;;;;;14.30;9.48;;;;;;;6.86;68.52;98329.00;5059347;28;45682;-78
2021/03/11 05:24:33;;;;;;;17.02;9.40;;;;;;;6.86;67.61;98344.84;5077480;28;46173;-78
2021/03/11 05:26:58;;;;;;;16.92;10.30;;;;;;;6.84;65.07;98357.38;5078038;28;45219;-78
2021/03/11 05:29:24;;;;;;;15.32;9.13;;;;;;;6.90;64.90;98358.63;5077803;28;45394;-78
2021/03/11 05:31:49;;;;;;;14.82;8.88;;;;;;;6.96;62.99;98353.69;5077647;28;45545;-78
2021/03/11 05:34:15;;;;;;;14.98;9.25;;;;;;;6.99;64.82;98360.50;5077658;28;45335;-78
2021/03/11 05:36:40;;;;;;;13.73;8.57;;;;;;;6.93;64.40;98355.72;5077882;28;45489;-78
2021/03/11 05:39:07;;;;;;;17.52;8.93;;;;;;;6.94;64.45;98349.47;5071315;28;45518;-78
2021/03/11 05:41:37;;;;;;;14.15;7.95;;;;;;;7.14;62.87;98348.63;5075677;28;45466;-78
2021/03/11 05:44:03;;;;;;;12.77;6.90;;;;;;;7.21;65.50;98342.81;5059319;28;47205;-78
2021/03/11 05:46:30;;;;;;;11.75;6.10;;;;;;;7.17;64.38;98351.97;5077582;28;45290;-77
2021/03/11 05:48:56;;;;;;;11.55;6.93;;;;;;;7.13;64.79;98349.59;5079127;28;45295;-78
2021/03/11 05:51:22;;;;;;;12.73;7.53;;;;;;;7.14;66.44;98358.34;5081076;28;45456;-78
2021/03/11 05:53:47;;;;;;;16.27;9.82;;;;;;;7.17;66.32;98365.22;5080639;28;45517;-77
2021/03/11 05:56:14;;;;;;;19.13;12.07;;;;;;;7.19;66.92;98350.03;5081297;28;45353;-78
2021/03/11 05:58:39;;;;;;;15.75;9.82;;;;;;;7.25;65.09;98347.69;5062648;28;45356;-77
2021/03/11 06:01:06;;;;;;;16.02;10.88;;;;;;;7.28;68.03;98349.25;5075381;28;45612;-78
2021/03/11 06:03:32;;;;;;;21.45;13.88;;;;;;;7.10;69.52;98359.59;5070573;27;46026;-77
2021/03/11 06:06:00;;;;;;;20.05;12.45;;;;;;;7.15;66.91;98357.38;5053569;28;45406;-79
2021/03/11 06:08:26;;;;;;;18.00;11.93;;;;;;;7.26;65.71;98352.00;5054763;28;45363;-78
2021/03/11 06:10:59;;;;;;;21.80;13.25;;;;;;;7.19;70.48;98356.16;5063466;28;45688;-78
2021/03/11 06:13:25;;;;;;;14.50;8.15;;;;;;;7.08;65.93;98351.81;5074979;28;46531;-78
2021/03/11 06:16:01;;;;;;;12.38;8.55;;;;;;;7.19;66.44;98364.09;5076460;28;45380;-79
2021/03/11 06:18:31;;;;;;;10.70;6.75;;;;;;;7.26;67.18;98369.72;5076734;28;45464;-80
2021/03/11 06:21:00;;;;;;;11.38;6.80;;;;;;;7.26;63.43;98375.00;5079507;28;45410;-81
2021/03/11 06:23:25;;;;;;;10.15;6.22;;;;;;;7.35;65.39;98374.19;5078946;28;45489;-83
2021/03/11 06:25:53;;;;;;;10.07;6.40;;;;;;;7.29;68.81;98387.97;5074819;28;45492;-81
2021/03/11 06:28:44;;;;;;;13.98;9.73;;;;;;;7.32;67.58;98397.41;5071503;28;45450;-81
2021/03/11 06:31:16;;;;;;;;;;;;;;;7.29;64.07;98396.72;5061031;28;45422;-80
2021/03/11 06:33:41;;;;;;;14.07;9.00;;;;;;;7.34;65.91;98395.47;5072595;28;45333;-81
2021/03/11 06:36:11;;;;;;;11.45;8.65;;;;;;;7.42;68.32;98408.88;5056690;28;45466;-80
2021/03/11 06:38:37;;;;;;;13.57;8.35;;;;;;;7.37;69.20;98409.31;5073984;28;45500;-80
2021/03/11 06:41:02;;;;;;;14.02;8.00;;;;;;;7.48;68.30;98421.59;5074833;28;45492;-80
2021/03/11 06:43:28;;;;;;;14.02;8.60;;;;;;;7.43;71.95;98424.66;5077538;28;45420;-78
2021/03/11 06:46:07;;;;;;;24.70;14.85;;;;;;;7.40;67.64;98419.63;5078979;28;45470;-74
2021/03/11 06:48:33;;;;;;;22.03;11.80;;;;;;;7.55;66.76;98422.75;5076541;28;45241;-80
2021/03/11 06:51:00;;;;;;;19.52;11.98;;;;;;;7.61;70.47;98425.84;5079469;28;45473;-78
2021/03/11 06:53:27;;;;;;;21.83;14.85;;;;;;;7.66;68.97;98435.06;5078800;28;45455;-78
2021/03/11 06:55:53;;;;;;;24.80;15.38;;;;;;;7.40;64.54;98434.63;5060911;28;45432;-79
2021/03/11 06:58:19;;;;;;;23.67;15.43;;;;;;;7.51;67.55;98437.22;5079321;28;45563;-78
2021/03/11 07:00:46;;;;;;;26.92;16.42;;;;;;;7.57;70.84;98451.72;5060390;28;45564;-79
2021/03/11 07:03:12;;;;;;;23.08;14.48;;;;;;;7.43;69.99;98456.41;5053532;28;48300;-83
2021/03/11 07:05:43;;;;;;;24.35;15.20;;;;;;;7.41;71.83;98449.53;5060431;28;45493;-79
2021/03/11 07:08:14;;;;;;;22.65;15.05;;;;;;;7.57;72.02;98457.03;5078530;28;45468;-79
2021/03/11 07:10:42;;;;;;;18.02;11.93;;;;;;;7.67;71.64;98462.38;5077626;28;45619;-80
2021/03/11 07:13:07;;;;;;;15.27;10.23;;;;;;;7.61;71.87;98458.44;5069443;28;45406;-79
2021/03/11 07:15:35;;;;;;;12.50;8.73;;;;;;;7.40;72.57;98447.88;5079145;28;45389;-79
2021/03/11 07:18:04;;;;;;;13.25;8.50;;;;;;;7.43;74.08;98456.41;5060831;28;45318;-79
2021/03/11 07:20:32;;;;;;;12.50;8.38;;;;;;;7.39;76.08;98454.13;5079098;28;45903;-79
2021/03/11 07:23:10;;;;;;;11.55;7.30;;;;;;;7.55;73.80;98443.94;5060423;28;47013;-79
2021/03/11 07:25:40;;;;;;;12.82;6.93;;;;;;;7.74;75.02;98447.63;5078968;28;45201;-79
2021/03/11 07:28:06;;;;;;;;;;;;;;;7.81;78.79;98453.22;5079526;28;45335;-79
2021/03/11 07:30:47;;;;;;;16.95;11.30;;;;;;;8.02;72.17;98456.66;5060873;28;45566;-79
2021/03/11 07:33:14;;;;;;;20.30;10.38;;;;;;;7.88;70.24;98449.91;5061041;28;48602;-79
2021/03/11 07:35:41;;;;;;;13.23;9.10;;;;;;;7.93;70.58;98453.97;5079064;28;45394;-79
2021/03/11 07:38:07;;;;;;;14.57;9.07;;;;;;;7.84;71.24;98443.22;5077826;28;45414;-76
2021/03/11 07:40:33;;;;;;;13.32;8.68;;;;;;;8.01;70.59;98438.25;5077055;28;45995;-76
2021/03/11 07:43:00;;;;;;;11.90;7.90;;;;;;;8.14;70.49;98445.97;5077308;28;45431;-76
2021/03/11 07:45:27;;;;;;;11.52;7.22;;;;;;;8.39;68.19;98452.53;5077710;28;45349;-76
2021/03/11 07:47:53;;;;;;;15.70;9.35;;;;;;;8.26;67.05;98447.50;5078298;28;45335;-78
2021/03/11 07:50:19;;;;;;;17.73;10.13;;;;;;;8.31;64.25;98455.03;5078703;28;45545;-77
2021/03/11 07:52:44;;;;;;;16.23;9.90;;;;;;;8.36;66.71;98457.28;5077741;28;46238;-77
2021/03/11 07:55:11;;;;;;;10.40;7.65;;;;;;;8.46;66.55;98456.34;5077543;28;45363;-76
2021/03/11 07:57:40;;;;;;;11.00;6.60;;;;;;;8.41;67.56;98460.38;5076870;28;45453;-76
2021/03/11 08:00:07;;;;;;;10.32;7.18;;;;;;;8.50;69.58;98458.75;5057327;28;45379;-75
2021/03/11 08:02:35;;;;;;;11.30;6.78;;;;;;;8.57;70.15;98468.66;5074128;28;45483;-76
2021/03/11 08:05:00;;;;;;;12.77;8.35;;;;;;;8.72;68.97;98471.75;5077719;28;45516;-76
2021/03/11 08:07:27;;;;;;;14.02;10.15;;;;;;;8.98;66.97;98480.97;5059566;28;45621;-75
2021/03/11 08:09:56;;;;;;;22.65;15.95;;;;;;;9.30;69.11;98480.66;5059985;28;45561;-75
2021/03/11 08:12:39;;;;;;;26.38;18.75;;;;;;;9.74;69.85;98477.47;5073475;28;46106;-76
2021/03/11 08:15:14;;;;;;;26.48;18.42;;;;;;;9.93;67.98;98475.72;5078011;28;45519;-75
2021/03/11 08:17:48;;;;;;;27.95;19.58;;;;;;;10.00;68.18;98478.63;5077343;28;45370;-76
2021/03/11 08:20:19;;;;;;;27.98;19.10;;;;;;;10.19;66.37;98481.19;5078300;28;45457;-75
2021/03/11 08:22:57;;;;;;;24.38;15.82;;;;;;;10.15;63.99;98484.28;5077390;28;45460;-76
2021/03/11 08:25:37;;;;;;;23.58;16.25;;;;;;;10.35;63.87;98469.09;5077560;28;45418;-75
2021/03/11 08:28:23;;;;;;;;;;;;;;;10.38;63.17;98458.16;5075998;28;45514;-75
2021/03/11 08:30:51;;;;;;;22.40;15.18;;;;;;;10.31;62.30;98454.41;5059490;28;45260;-76
2021/03/11 08:33:19;;;;;;;23.05;15.02;;;;;;;10.37;62.08;98451.16;5078077;28;45368;-75
2021/03/11 08:35:51;;;;;;;23.08;15.50;;;;;;;10.30;62.06;98450.09;5059629;28;45475;-75
2021/03/11 08:38:20;;;;;;;24.42;15.80;;;;;;;10.42;63.08;98453.38;5059453;28;45349;-75
2021/03/11 08:40:51;;;;;;;23.88;15.02;;;;;;;10.19;63.62;98443.16;5076528;28;45529;-75
2021/03/11 08:43:35;;;;;;;21.38;14.90;;;;;;;10.31;62.19;98444.59;5059560;28;47011;-75
2021/03/11 08:46:02;;;;;;;24.65;15.57;;;;;;;10.57;61.47;98443.91;5059410;28;45397;-75
2021/03/11 08:48:38;;;;;;;29.83;15.98;;;;;;;11.21;60.04;98450.94;5059494;28;45377;-75
2021/03/11 08:51:04;;;;;;;28.05;17.30;;;;;;;11.50;56.83;98444.47;5065311;28;45314;-76
2021/03/11 08:53:36;;;;;;;20.95;11.57;;;;;;;11.47;53.00;98439.47;5058511;28;47073;-75
2021/03/11 08:56:22;;;;;;;20.65;12.90;;;;;;;11.83;54.86;98439.31;5076885;28;45409;-76
2021/03/11 08:58:58;;;;;;;18.67;10.68;;;;;;;11.99;49.73;98432.41;5074815;28;45437;-76
2021/03/11 09:01:47;;;;;;;19.38;10.30;;;;;;;12.00;50.87;98436.75;5077668;28;45320;-76
2021/03/11 09:04:22;;;;;;;17.60;11.43;;;;;;;11.79;52.97;98443.28;5077451;28;46053;-77
2021/03/11 09:06:57;;;;;;;18.15;11.30;;;;;;;11.80;50.95;98455.63;5077750;28;45371;-76
2021/03/11 09:09:37;;;;;;;21.02;10.98;;;;;;;11.78;51.40;98441.63;5065009;28;45378;-76
2021/03/11 09:12:10;;;;;;;16.85;10.68;;;;;;;12.20;51.77;98432.84;5071736;28;45482;-76
2021/03/11 09:14:37;;;;;;;14.57;9.10;;;;;;;13.03;50.30;98432.97;5076395;28;45495;-76
2021/03/11 09:17:14;;;;;;;14.63;8.93;;;;;;;13.27;48.42;98434.78;5058320;28;45395;-76
2021/03/11 09:19:50;;;;;;;16.00;9.35;;;;;;;13.22;47.26;98446.97;5059239;28;45392;-77
2021/03/11 09:22:16;;;;;;;12.70;7.47;;;;;;;12.97;45.95;98457.66;5077364;28;45533;-76
2021/03/11 09:24:41;;;;;;;9.77;6.82;;;;;;;13.03;47.57;98462.31;5075934;28;45163;-77
2021/03/11 09:27:14;;;;;;;14.32;7.70;;;;;;;12.32;46.75;98465.34;5076654;28;45260;-76
2021/03/11 09:29:48;;;;;;;14.13;9.05;;;;;;;12.19;46.03;98468.50;5077424;28;45272;-76
2021/03/11 09:32:15;;;;;;;13.73;8.15;;;;;;;12.29;45.82;98468.34;5058638;28;45467;-76
2021/03/11 09:34:55;;;;;;;11.88;6.88;;;;;;;12.86;47.70;98453.47;5076153;28;46017;-78
2021/03/11 09:37:47;;;;;;;10.40;6.20;;;;;;;13.14;46.96;98463.81;5047773;28;45924;-75
2021/03/11 09:40:34;;;;;;;11.60;6.18;;;;;;;13.08;47.85;98459.13;5065624;28;45314;-76
2021/03/11 09:43:21;;;;;;;9.20;5.47;;;;;;;12.88;44.94;98455.97;5075240;28;45532;-76
2021/03/11 09:46:08;;;;;;;10.88;5.75;;;;;;;13.08;47.71;98451.13;5076257;28;45497;-76
2021/03/11 09:48:38;;;;;;;9.02;5.78;;;;;;;13.25;46.55;98459.97;5076746;28;45421;-78
2021/03/11 09:51:05;;;;;;;9.68;5.63;;;;;;;13.09;45.61;98460.81;5076696;28;45475;-77
2021/03/11 09:53:39;;;;;;;14.65;8.38;;;;;;;12.95;46.17;98462.31;5076597;28;45275;-77
2021/03/11 09:56:06;;;;;;;13.05;7.38;;;;;;;12.88;46.06;98458.66;5055352;28;47148;-75
2021/03/11 09:58:32;;;;;;;16.65;9.82;;;;;;;12.69;46.04;98458.78;5076428;28;45504;-76
2021/03/11 10:00:58;;;;;;;14.40;8.82;;;;;;;12.50;46.36;98453.75;5075955;28;45554;-75
2021/03/11 10:03:28;;;;;;;13.77;7.25;;;;;;;12.83;47.06;98459.97;5070972;28;45476;-76
2021/03/11 10:05:56;;;;;;;12.73;7.28;;;;;;;12.96;45.95;98440.78;5065668;28;45580;-77
2021/03/11 10:08:27;;;;;;;9.57;6.05;;;;;;;13.35;48.34;98427.75;5058222;28;45595;-76
2021/03/11 10:11:03;;;;;;;12.25;7.10;;;;;;;13.39;47.24;98435.25;5076573;28;45224;-75
2021/03/11 10:13:37;;;;;;;10.15;6.10;;;;;;;13.39;46.25;98435.25;5070244;28;45687;-75
2021/03/11 10:16:04;;;;;;;11.73;5.95;;;;;;;13.27;45.41;98439.28;5058312;28;46940;-76
2021/03/11 10:18:29;;;;;;;11.48;6.30;;;;;;;13.36;46.06;98434.78;5076613;28;45290;-76
2021/03/11 10:21:07;;;;;;;11.02;6.00;;;;;;;13.35;45.28;98422.41;5076780;28;45457;-77
2021/03/11 10:23:34;;;;;;;9.23;5.78;;;;;;;13.54;45.61;98413.22;5076232;28;45311;-76
2021/03/11 10:26:20;;;;;;;10.45;5.72;;;;;;;13.41;45.29;98403.84;5075680;28;45453;-76
2021/03/11 10:28:48;;;;;;;10.75;6.15;;;;;;;13.46;45.52;98397.19;5058313;28;45295;-76
2021/03/11 10:31:14;;;;;;;10.77;6.15;;;;;;;13.64;45.98;98384.44;5058635;28;45357;-76
2021/03/11 10:33:41;;;;;;;9.77;5.78;;;;;;;13.77;44.33;98385.75;5076217;28;45404;-76
2021/03/11 10:36:15;;;;;;;9.23;5.45;;;;;;;13.94;45.15;98378.50;5060099;28;47214;-76
2021/03/11 10:38:42;;;;;;;8.73;5.35;;;;;;;14.08;45.15;98374.25;5048495;28;45421;-79
2021/03/11 10:41:10;;;;;;;8.60;5.20;;;;;;;14.19;43.38;98367.69;5079005;28;45302;-77
2021/03/11 10:43:35;;;;;;;10.02;5.10;;;;;;;14.12;42.56;98373.69;5071635;28;45318;-77
2021/03/11 10:46:01;;;;;;;9.27;5.40;;;;;;;14.55;43.57;98370.59;5070742;28;46090;-77
2021/03/11 10:48:26;;;;;;;12.95;5.07;;;;;;;14.77;44.09;98365.47;5076340;28;45243;-76
2021/03/11 10:50:54;;;;;;;9.93;4.32;;;;;;;14.68;43.49;98361.16;5073169;28;45434;-76
2021/03/11 10:53:35;;;;;;;11.63;4.70;;;;;;;14.63;42.91;98355.50;5078554;28;45402;-77
2021/03/11 10:56:06;;;;;;;7.50;4.43;;;;;;;14.47;43.09;98348.44;5076163;28;46239;-76
2021/03/11 10:58:31;;;;;;;9.85;4.43;;;;;;;14.51;43.96;98336.34;5078975;28;45433;-77
2021/03/11 11:01:21;;;;;;;11.25;4.65;;;;;;;14.54;43.13;98344.03;5070284;28;45390;-76
2021/03/11 11:03:47;;;;;;;9.43;4.35;;;;;;;14.78;43.21;98342.19;5059447;28;45383;-78
2021/03/11 11:06:12;;;;;;;6.93;3.20;;;;;;;15.00;43.79;98335.94;5078188;28;45407;-78
2021/03/11 11:08:43;;;;;;;4.95;3.45;;;;;;;15.23;43.26;98347.59;5078624;28;45355;-78
2021/03/11 11:11:10;;;;;;;10.75;3.33;;;;;;;15.19;42.35;98344.47;5078440;28;45465;-78
2021/03/11 11:13:35;;;;;;;6.30;2.90;;;;;;;15.03;42.16;98345.47;5064995;28;45667;-78
2021/03/11 11:16:01;;;;;;;4.47;2.90;;;;;;;15.21;43.19;98333.56;5078195;28;46126;-78
2021/03/11 11:18:26;;;;;;;5.85;3.13;;;;;;;15.07;43.56;98336.06;5072778;28;45407;-77
2021/03/11 11:20:51;;;;;;;5.43;2.55;;;;;;;14.80;41.89;98332.97;5078403;28;45408;-78
2021/03/11 11:23:17;;;;;;;5.82;3.05;;;;;;;14.77;42.60;98327.13;5077890;28;45358;-76
2021/03/11 11:25:42;;;;;;;5.00;2.60;;;;;;;14.86;43.85;98328.72;5078036;28;45552;-77
2021/03/11 11:28:08;;;;;;;6.10;3.38;;;;;;;14.94;43.81;98341.22;5078069;28;45729;-76
2021/03/11 11:30:33;;;;;;;7.53;3.40;;;;;;;14.84;43.42;98336.94;5075030;28;45541;-77
2021/03/11 11:32:59;;;;;;;6.07;3.45;;;;;;;15.22;43.61;98329.88;5049588;28;45741;-77
2021/03/11 11:35:25;;;;;;;5.22;3.10;;;;;;;15.48;43.76;98323.25;5074026;28;46215;-77